sensor_id;sensor_type;location;lat;lon;timestamp;pressure;altitude;pressure_sealevel;temperature;humidity
69035;BME280;56091;55.756;37.412;2023-05-21T00:02:38;99672.69;;;9.24;99.50
69035;BME280;56091;55.756;37.412;2023-05-21T00:07:39;99657.72;;;9.28;100.00
69035;BME280;56091;55.756;37.412;2023-05-21T00:12:40;99670.34;;;9.39;99.52
69035;BME280;56091;55.756;37.412;2023-05-21T00:17:41;99652.66;;;9.43;99.08
69035;BME280;56091;55.756;37.412;2023-05-21T00:22:42;99656.00;;;9.50;98.22
69035;BME280;56091;55.756;37.412;2023-05-21T00:27:43;99649.00;;;9.49;96.69
69035;BME280;56091;55.756;37.412;2023-05-21T00:32:44;99646.13;;;9.68;98.31
69035;BME280;56091;55.756;37.412;2023-05-21T00:37:46;99625.09;;;9.53;94.43
69035;BME280;56091;55.756;37.412;2023-05-21T00:42:47;99582.94;;;9.30;93.89
69035;BME280;56091;55.756;37.412;2023-05-21T00:47:52;99634.56;;;9.84;95.56
69035;BME280;56091;55.756;37.412;2023-05-21T00:52:56;99628.13;;;9.85;94.29
69035;BME280;56091;55.756;37.412;2023-05-21T00:57:59;99635.47;;;9.90;92.53
69035;BME280;56091;55.756;37.412;2023-05-21T01:03:00;99637.94;;;9.91;93.04
69035;BME280;56091;55.756;37.412;2023-05-21T01:08:04;99479.84;;;9.17;94.15
69035;BME280;56091;55.756;37.412;2023-05-21T01:13:05;99648.97;;;10.35;92.64
69035;BME280;56091;55.756;37.412;2023-05-21T01:18:06;99627.97;;;10.38;92.85
69035;BME280;56091;55.756;37.412;2023-05-21T01:23:09;99647.69;;;10.55;90.39
69035;BME280;56091;55.756;37.412;2023-05-21T01:28:10;99642.94;;;10.62;89.46
69035;BME280;56091;55.756;37.412;2023-05-21T01:33:18;99644.91;;;10.67;88.49
69035;BME280;56091;55.756;37.412;2023-05-21T01:38:32;99647.97;;;10.75;88.75
69035;BME280;56091;55.756;37.412;2023-05-21T01:43:38;99623.31;;;10.67;88.30
69035;BME280;56091;55.756;37.412;2023-05-21T01:48:41;99645.53;;;10.91;87.49
69035;BME280;56091;55.756;37.412;2023-05-21T01:53:43;99637.94;;;10.88;87.29
69035;BME280;56091;55.756;37.412;2023-05-21T01:58:44;99594.53;;;10.72;87.26
69035;BME280;56091;55.756;37.412;2023-05-21T02:03:45;99635.75;;;11.07;86.51
69035;BME280;56091;55.756;37.412;2023-05-21T02:08:45;99633.63;;;11.09;86.70
69035;BME280;56091;55.756;37.412;2023-05-21T02:13:47;99634.50;;;11.14;86.76
69035;BME280;56091;55.756;37.412;2023-05-21T02:18:48;99636.16;;;11.16;86.74
69035;BME280;56091;55.756;37.412;2023-05-21T02:23:52;99620.94;;;11.09;86.65
69035;BME280;56091;55.756;37.412;2023-05-21T02:28:53;99622.09;;;11.13;87.03
69035;BME280;56091;55.756;37.412;2023-05-21T02:33:55;99630.00;;;11.20;86.36
69035;BME280;56091;55.756;37.412;2023-05-21T02:38:56;99623.78;;;11.20;86.47
69035;BME280;56091;55.756;37.412;2023-05-21T02:43:57;99628.09;;;11.21;86.37
69035;BME280;56091;55.756;37.412;2023-05-21T02:48:58;99622.47;;;11.22;85.98
69035;BME280;56091;55.756;37.412;2023-05-21T02:53:58;99633.13;;;11.34;85.87
69035;BME280;56091;55.756;37.412;2023-05-21T02:59:00;99628.25;;;11.31;86.05
69035;BME280;56091;55.756;37.412;2023-05-21T03:04:01;99638.13;;;11.42;85.92
69035;BME280;56091;55.756;37.412;2023-05-21T03:09:02;99592.31;;;11.30;85.08
69035;BME280;56091;55.756;37.412;2023-05-21T03:14:05;99627.41;;;11.75;84.29
69035;BME280;56091;55.756;37.412;2023-05-21T03:19:07;99635.69;;;11.90;83.87
69035;BME280;56091;55.756;37.412;2023-05-21T03:24:08;99644.94;;;11.94;83.61
69035;BME280;56091;55.756;37.412;2023-05-21T03:29:09;99619.88;;;11.82;82.80
69035;BME280;56091;55.756;37.412;2023-05-21T03:34:10;99628.78;;;11.77;83.54
69035;BME280;56091;55.756;37.412;2023-05-21T03:39:10;99641.31;;;11.88;83.08
69035;BME280;56091;55.756;37.412;2023-05-21T03:44:12;99611.38;;;11.68;83.04
69035;BME280;56091;55.756;37.412;2023-05-21T03:49:39;99637.63;;;11.95;82.02
69035;BME280;56091;55.756;37.412;2023-05-21T03:54:41;99643.47;;;12.08;82.22
69035;BME280;56091;55.756;37.412;2023-05-21T03:59:43;99634.97;;;12.00;81.28
69035;BME280;56091;55.756;37.412;2023-05-21T04:04:44;99637.50;;;11.84;81.14
69035;BME280;56091;55.756;37.412;2023-05-21T04:09:46;99644.22;;;12.04;82.06
69035;BME280;56091;55.756;37.412;2023-05-21T04:14:47;99641.25;;;12.05;82.45
69035;BME280;56091;55.756;37.412;2023-05-21T04:19:54;99639.16;;;12.13;82.95
69035;BME280;56091;55.756;37.412;2023-05-21T04:24:54;99635.28;;;12.03;81.77
69035;BME280;56091;55.756;37.412;2023-05-21T04:30:00;99640.03;;;11.91;81.33
69035;BME280;56091;55.756;37.412;2023-05-21T04:35:04;99640.31;;;11.95;82.35
69035;BME280;56091;55.756;37.412;2023-05-21T04:40:08;99634.91;;;11.95;82.88
69035;BME280;56091;55.756;37.412;2023-05-21T04:45:09;99643.28;;;11.93;82.84
69035;BME280;56091;55.756;37.412;2023-05-21T04:50:13;99630.22;;;12.12;82.02
69035;BME280;56091;55.756;37.412;2023-05-21T04:55:14;99623.84;;;12.23;80.71
69035;BME280;56091;55.756;37.412;2023-05-21T05:00:15;99641.13;;;12.55;79.02
69035;BME280;56091;55.756;37.412;2023-05-21T05:05:19;99646.72;;;12.80;77.71
69035;BME280;56091;55.756;37.412;2023-05-21T05:10:19;99642.44;;;12.84;75.70
69035;BME280;56091;55.756;37.412;2023-05-21T05:15:22;99630.97;;;13.15;75.20
69035;BME280;56091;55.756;37.412;2023-05-21T05:20:23;99641.56;;;13.90;72.97
69035;BME280;56091;55.756;37.412;2023-05-21T05:25:25;99625.78;;;13.66;72.55
69035;BME280;56091;55.756;37.412;2023-05-21T05:30:26;99645.03;;;13.70;71.67
69035;BME280;56091;55.756;37.412;2023-05-21T05:35:30;99635.16;;;13.38;70.84
69035;BME280;56091;55.756;37.412;2023-05-21T05:40:31;99656.06;;;13.00;71.28
69035;BME280;56091;55.756;37.412;2023-05-21T05:45:32;99647.75;;;13.12;70.37
69035;BME280;56091;55.756;37.412;2023-05-21T05:50:34;99657.44;;;13.50;69.03
69035;BME280;56091;55.756;37.412;2023-05-21T05:55:35;99661.06;;;13.81;67.81
69035;BME280;56091;55.756;37.412;2023-05-21T06:00:36;99658.88;;;13.78;67.85
69035;BME280;56091;55.756;37.412;2023-05-21T06:05:38;99658.69;;;14.00;65.94
69035;BME280;56091;55.756;37.412;2023-05-21T06:10:38;99669.78;;;13.99;64.99
69035;BME280;56091;55.756;37.412;2023-05-21T06:15:40;99653.50;;;13.94;64.63
69035;BME280;56091;55.756;37.412;2023-05-21T06:20:42;99671.97;;;14.02;63.78
69035;BME280;56091;55.756;37.412;2023-05-21T06:25:44;99654.84;;;13.86;64.32
69035;BME280;56091;55.756;37.412;2023-05-21T06:30:45;99681.19;;;14.01;64.42
69035;BME280;56091;55.756;37.412;2023-05-21T06:35:46;99678.97;;;13.77;63.86
69035;BME280;56091;55.756;37.412;2023-05-21T06:40:46;99671.91;;;13.76;64.00
69035;BME280;56091;55.756;37.412;2023-05-21T06:45:55;99665.44;;;13.98;63.89
69035;BME280;56091;55.756;37.412;2023-05-21T06:51:12;99668.78;;;14.77;60.65
69035;BME280;56091;55.756;37.412;2023-05-21T06:56:13;99651.94;;;14.29;60.63
69035;BME280;56091;55.756;37.412;2023-05-21T07:01:16;99648.69;;;14.42;60.07
69035;BME280;56091;55.756;37.412;2023-05-21T07:06:17;99666.03;;;14.56;60.40
69035;BME280;56091;55.756;37.412;2023-05-21T07:11:19;99652.75;;;14.91;58.97
69035;BME280;56091;55.756;37.412;2023-05-21T07:16:21;99657.44;;;15.55;57.94
69035;BME280;56091;55.756;37.412;2023-05-21T07:21:23;99608.84;;;15.43;56.26
69035;BME280;56091;55.756;37.412;2023-05-21T07:26:25;99668.50;;;15.79;56.10
69035;BME280;56091;55.756;37.412;2023-05-21T07:31:26;99663.88;;;15.80;55.84
69035;BME280;56091;55.756;37.412;2023-05-21T07:36:28;99654.97;;;15.64;56.08
69035;BME280;56091;55.756;37.412;2023-05-21T07:41:29;99653.91;;;15.60;56.22
69035;BME280;56091;55.756;37.412;2023-05-21T07:46:32;99671.13;;;15.95;56.39
69035;BME280;56091;55.756;37.412;2023-05-21T07:51:33;99670.25;;;16.10;54.91
69035;BME280;56091;55.756;37.412;2023-05-21T07:56:37;99654.91;;;15.79;55.22
69035;BME280;56091;55.756;37.412;2023-05-21T08:01:40;99666.44;;;15.46;56.08
69035;BME280;56091;55.756;37.412;2023-05-21T08:06:43;99667.47;;;15.65;56.16
69035;BME280;56091;55.756;37.412;2023-05-21T08:11:44;99674.75;;;16.30;53.95
69035;BME280;56091;55.756;37.412;2023-05-21T08:16:45;99646.00;;;16.48;52.90
69035;BME280;56091;55.756;37.412;2023-05-21T08:21:47;99670.59;;;16.72;53.30
69035;BME280;56091;55.756;37.412;2023-05-21T08:26:48;99671.78;;;16.95;52.07
69035;BME280;56091;55.756;37.412;2023-05-21T08:31:50;99666.63;;;17.17;51.36
69035;BME280;56091;55.756;37.412;2023-05-21T08:36:51;99667.50;;;17.13;50.29
69035;BME280;56091;55.756;37.412;2023-05-21T08:42:44;99671.44;;;16.67;50.66
69035;BME280;56091;55.756;37.412;2023-05-21T08:47:54;99665.44;;;16.70;51.46
69035;BME280;56091;55.756;37.412;2023-05-21T08:52:56;99669.44;;;16.49;51.52
69035;BME280;56091;55.756;37.412;2023-05-21T08:57:59;99671.56;;;16.12;53.13
69035;BME280;56091;55.756;37.412;2023-05-21T09:03:03;99624.78;;;16.10;51.96
69035;BME280;56091;55.756;37.412;2023-05-21T09:08:18;99669.38;;;16.88;50.88
69035;BME280;56091;55.756;37.412;2023-05-21T09:13:30;99660.63;;;16.91;50.46
69035;BME280;56091;55.756;37.412;2023-05-21T09:18:33;99671.09;;;16.79;50.57
69035;BME280;56091;55.756;37.412;2023-05-21T09:23:44;99666.44;;;17.09;49.49
69035;BME280;56091;55.756;37.412;2023-05-21T09:28:46;99655.69;;;17.23;49.97
69035;BME280;56091;55.756;37.412;2023-05-21T09:33:47;99671.88;;;17.81;49.30
69035;BME280;56091;55.756;37.412;2023-05-21T09:38:51;99674.44;;;17.97;46.51
69035;BME280;56091;55.756;37.412;2023-05-21T09:43:58;99676.00;;;17.79;47.04
69035;BME280;56091;55.756;37.412;2023-05-21T09:49:00;99685.03;;;17.55;47.91
69035;BME280;56091;55.756;37.412;2023-05-21T09:54:04;99678.75;;;17.54;47.66
69035;BME280;56091;55.756;37.412;2023-05-21T09:59:06;99671.78;;;17.67;47.44
69035;BME280;56091;55.756;37.412;2023-05-21T10:04:07;99682.53;;;18.02;46.53
69035;BME280;56091;55.756;37.412;2023-05-21T10:09:14;99693.44;;;18.40;45.59
69035;BME280;56091;55.756;37.412;2023-05-21T10:14:24;99680.28;;;18.61;45.03
69035;BME280;56091;55.756;37.412;2023-05-21T10:19:28;99699.31;;;18.99;44.60
69035;BME280;56091;55.756;37.412;2023-05-21T10:24:31;99690.50;;;19.48;42.74
69035;BME280;56091;55.756;37.412;2023-05-21T10:29:33;99673.13;;;19.67;41.81
69035;BME280;56091;55.756;37.412;2023-05-21T10:34:37;99666.31;;;20.06;41.00
69035;BME280;56091;55.756;37.412;2023-05-21T10:39:38;99661.78;;;20.24;39.58
69035;BME280;56091;55.756;37.412;2023-05-21T10:44:45;99671.94;;;20.23;40.04
69035;BME280;56091;55.756;37.412;2023-05-21T11:00:26;99671.69;;;20.79;38.13
69035;BME280;56091;55.756;37.412;2023-05-21T11:05:53;99692.25;;;20.67;39.10
69035;BME280;56091;55.756;37.412;2023-05-21T11:10:55;99691.16;;;21.00;38.07
69035;BME280;56091;55.756;37.412;2023-05-21T11:21:06;99670.72;;;20.75;38.03
69035;BME280;56091;55.756;37.412;2023-05-21T11:26:10;99669.34;;;20.63;38.73
69035;BME280;56091;55.756;37.412;2023-05-21T11:31:22;99673.72;;;20.96;38.23
69035;BME280;56091;55.756;37.412;2023-05-21T11:36:24;99678.53;;;21.21;37.43
69035;BME280;56091;55.756;37.412;2023-05-21T11:41:30;99679.72;;;21.38;35.92
69035;BME280;56091;55.756;37.412;2023-05-21T11:46:50;99678.25;;;21.72;34.69
69035;BME280;56091;55.756;37.412;2023-05-21T11:51:54;99677.25;;;21.59;34.07
69035;BME280;56091;55.756;37.412;2023-05-21T11:56:56;99683.13;;;21.03;35.82
69035;BME280;56091;55.756;37.412;2023-05-21T12:01:57;99678.59;;;20.31;37.67
69035;BME280;56091;55.756;37.412;2023-05-21T12:07:06;99687.06;;;19.84;38.97
69035;BME280;56091;55.756;37.412;2023-05-21T12:17:37;99697.16;;;19.42;41.76
69035;BME280;56091;55.756;37.412;2023-05-21T12:22:41;99698.16;;;19.05;42.29
69035;BME280;56091;55.756;37.412;2023-05-21T12:27:46;99704.94;;;18.75;42.34
69035;BME280;56091;55.756;37.412;2023-05-21T12:32:47;99705.72;;;18.75;42.19
69035;BME280;56091;55.756;37.412;2023-05-21T12:37:51;99688.69;;;18.64;42.08
69035;BME280;56091;55.756;37.412;2023-05-21T12:42:51;99701.06;;;18.24;43.09
69035;BME280;56091;55.756;37.412;2023-05-21T12:47:52;99709.22;;;17.86;45.76
69035;BME280;56091;55.756;37.412;2023-05-21T12:52:58;99701.41;;;17.55;48.19
69035;BME280;56091;55.756;37.412;2023-05-21T12:58:03;99695.56;;;17.37;49.18
69035;BME280;56091;55.756;37.412;2023-05-21T13:03:05;99711.78;;;17.53;47.45
69035;BME280;56091;55.756;37.412;2023-05-21T13:08:05;99709.97;;;17.91;47.98
69035;BME280;56091;55.756;37.412;2023-05-21T13:13:06;99698.22;;;19.00;46.21
69035;BME280;56091;55.756;37.412;2023-05-21T13:18:07;99697.97;;;19.57;43.78
69035;BME280;56091;55.756;37.412;2023-05-21T13:23:08;99700.09;;;19.87;41.71
69035;BME280;56091;55.756;37.412;2023-05-21T13:28:09;99700.03;;;21.59;38.78
69035;BME280;56091;55.756;37.412;2023-05-21T13:33:12;99698.81;;;24.03;33.69
69035;BME280;56091;55.756;37.412;2023-05-21T13:38:16;99698.16;;;24.06;33.51
69035;BME280;56091;55.756;37.412;2023-05-21T13:43:18;99702.44;;;25.99;30.37
69035;BME280;56091;55.756;37.412;2023-05-21T13:48:19;99688.69;;;30.79;22.34
69035;BME280;56091;55.756;37.412;2023-05-21T13:53:20;99696.44;;;33.92;19.60
69035;BME280;56091;55.756;37.412;2023-05-21T13:58:21;99693.78;;;35.29;17.43
69035;BME280;56091;55.756;37.412;2023-05-21T14:03:24;99675.56;;;35.93;16.92
69035;BME280;56091;55.756;37.412;2023-05-21T14:08:26;99672.81;;;34.11;18.51
69035;BME280;56091;55.756;37.412;2023-05-21T14:13:28;99688.91;;;34.77;18.18
69035;BME280;56091;55.756;37.412;2023-05-21T14:18:30;99682.84;;;32.79;19.74
69035;BME280;56091;55.756;37.412;2023-05-21T14:23:30;99670.16;;;31.42;21.37
69035;BME280;56091;55.756;37.412;2023-05-21T14:28:31;99677.06;;;31.59;21.49
69035;BME280;56091;55.756;37.412;2023-05-21T14:33:33;99683.63;;;30.92;21.75
69035;BME280;56091;55.756;37.412;2023-05-21T14:38:35;99683.84;;;28.66;24.39
69035;BME280;56091;55.756;37.412;2023-05-21T14:43:36;99678.41;;;26.56;27.66
69035;BME280;56091;55.756;37.412;2023-05-21T14:48:36;99691.16;;;25.18;29.59
69035;BME280;56091;55.756;37.412;2023-05-21T14:53:37;99679.38;;;23.49;32.25
69035;BME280;56091;55.756;37.412;2023-05-21T14:58:38;99675.75;;;22.45;34.22
69035;BME280;56091;55.756;37.412;2023-05-21T15:03:39;99690.28;;;21.44;36.45
69035;BME280;56091;55.756;37.412;2023-05-21T15:08:40;99658.91;;;24.30;31.71
69035;BME280;56091;55.756;37.412;2023-05-21T15:13:45;99670.66;;;29.75;23.26
69035;BME280;56091;55.756;37.412;2023-05-21T15:18:46;99658.34;;;32.26;20.76
69035;BME280;56091;55.756;37.412;2023-05-21T15:23:46;99658.91;;;33.57;18.66
69035;BME280;56091;55.756;37.412;2023-05-21T15:28:49;99662.75;;;34.28;17.70
69035;BME280;56091;55.756;37.412;2023-05-21T15:33:50;99664.03;;;34.87;17.10
69035;BME280;56091;55.756;37.412;2023-05-21T15:38:51;99667.75;;;34.73;16.94
69035;BME280;56091;55.756;37.412;2023-05-21T15:43:52;99667.91;;;32.32;19.08
69035;BME280;56091;55.756;37.412;2023-05-21T15:48:52;99662.78;;;27.87;23.96
69035;BME280;56091;55.756;37.412;2023-05-21T15:53:53;99667.38;;;25.75;26.97
69035;BME280;56091;55.756;37.412;2023-05-21T15:58:54;99676.25;;;24.31;29.53
69035;BME280;56091;55.756;37.412;2023-05-21T16:03:58;99677.31;;;23.67;31.02
69035;BME280;56091;55.756;37.412;2023-05-21T16:09:00;99682.03;;;23.96;30.51
69035;BME280;56091;55.756;37.412;2023-05-21T16:14:01;99677.31;;;22.72;32.84
69035;BME280;56091;55.756;37.412;2023-05-21T16:19:01;99683.19;;;21.52;34.90
69035;BME280;56091;55.756;37.412;2023-05-21T16:24:02;99677.63;;;20.72;36.90
69035;BME280;56091;55.756;37.412;2023-05-21T16:29:03;99688.56;;;20.27;39.03
69035;BME280;56091;55.756;37.412;2023-05-21T16:34:04;99680.66;;;19.75;39.82
69035;BME280;56091;55.756;37.412;2023-05-21T16:39:05;99686.00;;;19.39;40.28
69035;BME280;56091;55.756;37.412;2023-05-21T16:44:06;99671.59;;;18.91;41.08
69035;BME280;56091;55.756;37.412;2023-05-21T16:49:07;99688.47;;;18.61;42.25
69035;BME280;56091;55.756;37.412;2023-05-21T16:54:08;99679.00;;;18.20;42.68
69035;BME280;56091;55.756;37.412;2023-05-21T16:59:10;99681.72;;;18.01;43.71
69035;BME280;56091;55.756;37.412;2023-05-21T17:04:11;99685.59;;;17.76;44.49
69035;BME280;56091;55.756;37.412;2023-05-21T17:09:12;99688.84;;;17.54;44.93
69035;BME280;56091;55.756;37.412;2023-05-21T17:14:13;99673.38;;;17.25;45.77
69035;BME280;56091;55.756;37.412;2023-05-21T17:19:14;99695.56;;;17.13;46.50
69035;BME280;56091;55.756;37.412;2023-05-21T17:24:15;99703.91;;;16.98;47.29
69035;BME280;56091;55.756;37.412;2023-05-21T17:29:15;99696.41;;;16.79;47.63
69035;BME280;56091;55.756;37.412;2023-05-21T17:34:16;99696.78;;;16.68;47.92
69035;BME280;56091;55.756;37.412;2023-05-21T17:39:19;99702.28;;;16.57;48.79
69035;BME280;56091;55.756;37.412;2023-05-21T17:44:20;99692.31;;;16.43;49.55
69035;BME280;56091;55.756;37.412;2023-05-21T17:49:21;99695.13;;;16.32;49.25
69035;BME280;56091;55.756;37.412;2023-05-21T17:54:22;99695.41;;;16.31;50.08
69035;BME280;56091;55.756;37.412;2023-05-21T17:59:23;99700.88;;;16.26;49.94
69035;BME280;56091;55.756;37.412;2023-05-21T18:04:25;99700.69;;;16.12;50.29
69035;BME280;56091;55.756;37.412;2023-05-21T18:09:27;99679.38;;;15.79;51.02
69035;BME280;56091;55.756;37.412;2023-05-21T18:14:28;99694.34;;;15.72;51.88
69035;BME280;56091;55.756;37.412;2023-05-21T18:19:29;99710.47;;;15.58;51.99
69035;BME280;56091;55.756;37.412;2023-05-21T18:24:30;99705.34;;;15.41;52.77
69035;BME280;56091;55.756;37.412;2023-05-21T18:29:31;99695.06;;;15.17;53.52
69035;BME280;56091;55.756;37.412;2023-05-21T18:34:31;99699.44;;;15.08;54.12
69035;BME280;56091;55.756;37.412;2023-05-21T18:39:32;99703.81;;;14.94;54.48
69035;BME280;56091;55.756;37.412;2023-05-21T18:44:33;99700.28;;;14.83;54.49
69035;BME280;56091;55.756;37.412;2023-05-21T18:49:34;99687.50;;;14.68;54.34
69035;BME280;56091;55.756;37.412;2023-05-21T18:54:41;99698.13;;;14.64;54.75
69035;BME280;56091;55.756;37.412;2023-05-21T18:59:41;99704.09;;;14.61;56.44
69035;BME280;56091;55.756;37.412;2023-05-21T19:04:42;99710.03;;;14.58;55.78
69035;BME280;56091;55.756;37.412;2023-05-21T19:09:46;99706.22;;;14.54;56.48
69035;BME280;56091;55.756;37.412;2023-05-21T19:14:48;99697.53;;;14.42;56.77
69035;BME280;56091;55.756;37.412;2023-05-21T19:19:49;99700.78;;;14.39;56.93
69035;BME280;56091;55.756;37.412;2023-05-21T19:24:55;99696.16;;;14.29;57.78
69035;BME280;56091;55.756;37.412;2023-05-21T19:29:56;99696.16;;;14.24;57.89
69035;BME280;56091;55.756;37.412;2023-05-21T19:34:56;99697.78;;;14.20;58.92
69035;BME280;56091;55.756;37.412;2023-05-21T19:39:57;99695.88;;;14.15;58.93
69035;BME280;56091;55.756;37.412;2023-05-21T19:45:01;99696.66;;;14.11;59.51
69035;BME280;56091;55.756;37.412;2023-05-21T19:50:03;99691.78;;;14.02;58.71
69035;BME280;56091;55.756;37.412;2023-05-21T19:55:05;99709.66;;;14.03;59.68
69035;BME280;56091;55.756;37.412;2023-05-21T20:00:08;99705.81;;;13.94;58.85
69035;BME280;56091;55.756;37.412;2023-05-21T20:05:13;99699.56;;;13.89;60.22
69035;BME280;56091;55.756;37.412;2023-05-21T20:10:14;99702.84;;;13.85;59.80
69035;BME280;56091;55.756;37.412;2023-05-21T20:15:18;99697.94;;;13.77;59.63
69035;BME280;56091;55.756;37.412;2023-05-21T20:20:19;99690.84;;;13.71;59.19
69035;BME280;56091;55.756;37.412;2023-05-21T20:25:22;99699.53;;;13.73;59.90
69035;BME280;56091;55.756;37.412;2023-05-21T20:30:31;99699.22;;;13.70;59.93
69035;BME280;56091;55.756;37.412;2023-05-21T20:35:35;99693.81;;;13.64;59.39
69035;BME280;56091;55.756;37.412;2023-05-21T20:40:39;99701.13;;;13.64;60.67
69035;BME280;56091;55.756;37.412;2023-05-21T20:45:40;99695.94;;;13.57;59.75
69035;BME280;56091;55.756;37.412;2023-05-21T20:50:44;99688.88;;;13.51;60.69
69035;BME280;56091;55.756;37.412;2023-05-21T20:55:47;99695.38;;;13.50;60.92
69035;BME280;56091;55.756;37.412;2023-05-21T21:00:48;99699.44;;;13.47;60.30
69035;BME280;56091;55.756;37.412;2023-05-21T21:05:50;99703.47;;;13.40;60.47
69035;BME280;56091;55.756;37.412;2023-05-21T21:10:52;99713.50;;;13.39;62.05
69035;BME280;56091;55.756;37.412;2023-05-21T21:15:53;99718.31;;;13.32;61.29
69035;BME280;56091;55.756;37.412;2023-05-21T21:20:54;99727.72;;;13.24;62.43
69035;BME280;56091;55.756;37.412;2023-05-21T21:25:55;99718.72;;;13.14;62.42
69035;BME280;56091;55.756;37.412;2023-05-21T21:30:56;99717.75;;;12.93;63.38
69035;BME280;56091;55.756;37.412;2023-05-21T21:35:59;99720.94;;;12.84;64.43
69035;BME280;56091;55.756;37.412;2023-05-21T21:40:59;99714.88;;;12.72;64.78
69035;BME280;56091;55.756;37.412;2023-05-21T21:46:00;99701.53;;;12.60;65.08
69035;BME280;56091;55.756;37.412;2023-05-21T21:51:01;99701.47;;;12.55;65.49
69035;BME280;56091;55.756;37.412;2023-05-21T21:56:02;99711.53;;;12.60;66.02
69035;BME280;56091;55.756;37.412;2023-05-21T22:01:03;99707.19;;;12.59;66.57
69035;BME280;56091;55.756;37.412;2023-05-21T22:06:04;99692.00;;;12.53;66.70
69035;BME280;56091;55.756;37.412;2023-05-21T22:11:05;99686.78;;;12.46;66.27
69035;BME280;56091;55.756;37.412;2023-05-21T22:16:06;99675.09;;;12.40;66.52
69035;BME280;56091;55.756;37.412;2023-05-21T22:21:08;99691.13;;;12.47;66.79
69035;BME280;56091;55.756;37.412;2023-05-21T22:26:09;99687.00;;;12.39;67.22
69035;BME280;56091;55.756;37.412;2023-05-21T22:31:10;99683.75;;;12.37;67.33
69035;BME280;56091;55.756;37.412;2023-05-21T22:36:14;99683.44;;;12.34;67.94
69035;BME280;56091;55.756;37.412;2023-05-21T22:41:15;99690.53;;;12.40;67.92
69035;BME280;56091;55.756;37.412;2023-05-21T22:46:16;99681.38;;;12.46;67.47
69035;BME280;56091;55.756;37.412;2023-05-21T22:51:17;99693.59;;;12.48;67.20
69035;BME280;56091;55.756;37.412;2023-05-21T22:56:21;99690.59;;;12.50;67.20
69035;BME280;56091;55.756;37.412;2023-05-21T23:01:22;99658.88;;;12.40;66.91
69035;BME280;56091;55.756;37.412;2023-05-21T23:06:23;99683.06;;;12.52;67.25
69035;BME280;56091;55.756;37.412;2023-05-21T23:11:24;99679.31;;;12.58;66.63
69035;BME280;56091;55.756;37.412;2023-05-21T23:16:26;99676.38;;;12.60;67.07
69035;BME280;56091;55.756;37.412;2023-05-21T23:21:30;99676.09;;;12.61;66.67
69035;BME280;56091;55.756;37.412;2023-05-21T23:26:31;99647.28;;;12.45;67.71
69035;BME280;56091;55.756;37.412;2023-05-21T23:31:31;99676.09;;;12.61;66.38
69035;BME280;56091;55.756;37.412;2023-05-21T23:36:32;99680.38;;;12.57;67.25
69035;BME280;56091;55.756;37.412;2023-05-21T23:41:33;99685.78;;;12.52;68.43
69035;BME280;56091;55.756;37.412;2023-05-21T23:46:34;99687.31;;;12.43;69.31
69035;BME280;56091;55.756;37.412;2023-05-21T23:51:35;99682.97;;;12.42;67.99
69035;BME280;56091;55.756;37.412;2023-05-21T23:56:35;99670.53;;;12.41;67.14
